Ana Sayfa
METAR-TAF:

METAR-TAF

Havaalanları :

St. Clair County International Airport

Port Huron, Michigan, Amerika Birleşik Devletleri

Enlem: 42-55N, Boylam: 082-32W, yükseklik: 198 m

Güncel hava durumu gözlemi

Rapor saat 02:42 UTC de 30 dakika önce yapıldı.
Sakin rüzgar
Sıcaklık 11°C
Nem 87%
Basınç 1020 hPa
Görüş mesafesi: 16.1 km
Açık gökyüzü

METAR: KPHN 250242Z AUTO 00000KT 10SM CLR 11/09 A3011 RMK AO2

Saat: 23:12 (03:12 UTC)


TAF: eksik

4.000'den fazla havaalanı için hava durumu gözlemleri ve tahminleri (METAR ve TAF raporları).

Kullanılabilir istasyonlar harita üzerinde sarı ve kırmızı noktalarla gösterilir.

İstasyonun adını görmek için fareyi noktanın üzerinde gezdirin.

Sonrasında hava gözlem ve tahminlerini görmek için tıklayın.

Haritayı değiştirmek için: yaklaştırmak için siyah artı işaretli yeşil düğmeye ve uzaklaştırmak için de eksi işaretli düğmeye hızla tıklayın; bitişik haritalar için yeşil okları kullanın.


METAR-TAF: